Time;durP1;ratioP1;P1;durP2;ratioP2;P2;SDS_P1;SDS_P2;PMS_P1;PMS_P2;Temp;Humidity;BMP_temperature;BMP_pressure;BME280_temperature;BME280_humidity;BME280_pressure;Samples;Min_cycle;Max_cycle;Signal;HPM_P1;HPM_P2
2023/09/02 00:01:51;;;;;;;0.63;0.63;;;;;;;;;;5025392;28;20440;-60
2023/09/02 00:04:17;;;;;;;1.10;1.00;;;;;;;;;;5025095;28;20154;-58
2023/09/02 00:06:43;;;;;;;0.73;0.73;;;;;;;;;;5024330;28;20064;-58
2023/09/02 00:09:09;;;;;;;0.60;0.60;;;;;;;;;;5025098;28;20067;-58
2023/09/02 00:11:35;;;;;;;0.77;0.77;;;;;;;;;;5026896;28;20437;-57
2023/09/02 00:14:02;;;;;;;1.02;0.80;;;;;;;;;;5024818;28;20034;-58
2023/09/02 00:16:28;;;;;;;0.93;0.90;;;;;;;;;;5025579;28;20564;-58
2023/09/02 00:18:54;;;;;;;2.05;0.90;;;;;;;;;;5025663;28;20136;-58
2023/09/02 00:21:20;;;;;;;0.82;0.82;;;;;;;;;;5024759;28;20069;-59
2023/09/02 00:23:46;;;;;;;0.73;0.73;;;;;;;;;;5025583;28;20079;-59
2023/09/02 00:26:12;;;;;;;1.00;0.90;;;;;;;;;;5024071;28;20469;-58
2023/09/02 00:28:38;;;;;;;0.85;0.85;;;;;;;;;;5025697;28;20391;-59
2023/09/02 00:31:04;;;;;;;1.13;0.95;;;;;;;;;;5025211;28;20076;-58
2023/09/02 00:33:31;;;;;;;1.55;1.23;;;;;;;;;;5024477;28;20084;-58
2023/09/02 00:35:57;;;;;;;0.82;0.80;;;;;;;;;;5022481;28;20080;-58
2023/09/02 00:38:23;;;;;;;0.55;0.55;;;;;;;;;;5023605;28;20773;-58
2023/09/02 00:40:56;;;;;;;0.60;0.50;;;;;;;;;;5023922;28;20494;-58
2023/09/02 00:43:22;;;;;;;0.73;0.73;;;;;;;;;;5023407;28;20072;-58
2023/09/02 00:45:48;;;;;;;0.80;0.70;;;;;;;;;;5024904;28;20045;-58
2023/09/02 00:48:14;;;;;;;0.88;0.88;;;;;;;;;;5023402;28;20049;-57
2023/09/02 00:50:40;;;;;;;1.10;1.00;;;;;;;;;;5024228;28;20083;-58
2023/09/02 00:53:06;;;;;;;0.90;0.90;;;;;;;;;;5025290;28;20045;-58
2023/09/02 00:55:32;;;;;;;1.00;0.98;;;;;;;;;;5024473;28;20095;-58
2023/09/02 00:57:59;;;;;;;1.00;0.90;;;;;;;;;;5023637;28;20044;-58
2023/09/02 01:00:25;;;;;;;1.05;0.90;;;;;;;;;;5024380;28;20045;-58
2023/09/02 01:02:52;;;;;;;0.80;0.80;;;;;;;;;;5024283;28;20679;-58
2023/09/02 01:05:20;;;;;;;0.80;0.80;;;;;;;;;;5023168;28;20081;-58
2023/09/02 01:07:46;;;;;;;1.00;0.93;;;;;;;;;;5024345;28;20041;-58
2023/09/02 01:10:12;;;;;;;1.10;1.10;;;;;;;;;;5022278;28;20051;-58
2023/09/02 01:12:38;;;;;;;0.80;0.80;;;;;;;;;;5024400;28;20417;-58
2023/09/02 01:15:04;;;;;;;1.00;1.00;;;;;;;;;;5023197;28;20043;-58
2023/09/02 01:17:30;;;;;;;0.90;0.90;;;;;;;;;;5019335;28;20045;-58
2023/09/02 01:19:57;;;;;;;0.73;0.70;;;;;;;;;;5024347;28;20045;-58
2023/09/02 01:22:33;;;;;;;0.75;0.60;;;;;;;;;;5021635;28;20041;-58
2023/09/02 01:25:18;;;;;;;1.17;1.08;;;;;;;;;;5022318;28;20061;-58
2023/09/02 01:27:47;;;;;;;1.13;1.08;;;;;;;;;;5021679;28;20030;-58
2023/09/02 01:30:15;;;;;;;0.90;0.90;;;;;;;;;;5024462;28;20073;-58
2023/09/02 01:32:43;;;;;;;0.93;0.93;;;;;;;;;;5023883;28;20048;-58
2023/09/02 01:35:10;;;;;;;0.98;0.98;;;;;;;;;;5021350;28;20042;-58
2023/09/02 01:37:42;;;;;;;1.02;0.93;;;;;;;;;;5022288;28;20049;-58
2023/09/02 01:40:11;;;;;;;0.90;0.90;;;;;;;;;;5022994;28;20055;-58
2023/09/02 01:42:37;;;;;;;1.23;0.93;;;;;;;;;;5023061;28;20516;-58
2023/09/02 01:45:03;;;;;;;0.77;0.77;;;;;;;;;;5022654;28;20408;-58
2023/09/02 01:47:29;;;;;;;0.80;0.80;;;;;;;;;;5022120;28;20080;-58
2023/09/02 01:49:56;;;;;;;1.23;1.13;;;;;;;;;;5023164;28;20037;-58
2023/09/02 01:52:23;;;;;;;1.25;1.15;;;;;;;;;;5019523;28;20068;-58
2023/09/02 01:54:49;;;;;;;0.98;0.88;;;;;;;;;;5023508;28;20044;-58
2023/09/02 01:57:15;;;;;;;0.75;0.75;;;;;;;;;;5023279;28;20496;-58
2023/09/02 01:59:41;;;;;;;1.00;1.00;;;;;;;;;;5022388;28;20685;-58
2023/09/02 02:02:07;;;;;;;1.33;1.00;;;;;;;;;;5022482;28;20806;-58
2023/09/02 02:04:35;;;;;;;1.20;1.10;;;;;;;;;;5023203;28;20235;-58
2023/09/02 02:07:05;;;;;;;1.27;1.17;;;;;;;;;;5023130;28;20067;-58
2023/09/02 02:09:39;;;;;;;1.27;1.17;;;;;;;;;;5021306;28;20029;-58
2023/09/02 02:12:05;;;;;;;0.90;0.90;;;;;;;;;;5018093;28;20049;-58
2023/09/02 02:14:32;;;;;;;0.88;0.88;;;;;;;;;;5021247;28;20073;-59
2023/09/02 02:16:58;;;;;;;1.15;1.02;;;;;;;;;;5022901;28;20576;-58
2023/09/02 02:19:24;;;;;;;1.10;1.05;;;;;;;;;;5019238;28;20099;-58
2023/09/02 02:21:51;;;;;;;0.93;0.90;;;;;;;;;;5021507;28;20041;-58
2023/09/02 02:24:17;;;;;;;1.40;1.17;;;;;;;;;;5020893;28;20044;-59
2023/09/02 02:26:43;;;;;;;0.90;0.90;;;;;;;;;;5023409;28;20048;-58
2023/09/02 02:29:09;;;;;;;0.70;0.63;;;;;;;;;;5022193;28;20053;-58
2023/09/02 02:31:36;;;;;;;0.93;0.93;;;;;;;;;;5023195;28;20526;-58
2023/09/02 02:34:02;;;;;;;0.90;0.73;;;;;;;;;;5022894;28;20062;-58
2023/09/02 02:36:28;;;;;;;1.30;1.20;;;;;;;;;;5021819;28;20063;-58
2023/09/02 02:38:54;;;;;;;1.20;1.10;;;;;;;;;;5021558;28;20048;-58
2023/09/02 02:41:20;;;;;;;1.05;0.98;;;;;;;;;;5021710;28;20061;-57
2023/09/02 02:43:46;;;;;;;0.90;0.90;;;;;;;;;;5023176;28;20041;-59
2023/09/02 02:46:12;;;;;;;0.90;0.90;;;;;;;;;;5022247;28;20540;-58
2023/09/02 02:48:38;;;;;;;1.75;1.13;;;;;;;;;;5022178;28;20072;-58
2023/09/02 02:51:04;;;;;;;0.90;0.90;;;;;;;;;;5021175;28;20037;-58
2023/09/02 02:53:31;;;;;;;0.95;0.95;;;;;;;;;;5021605;28;20049;-58
2023/09/02 02:55:57;;;;;;;1.05;1.00;;;;;;;;;;5022613;28;20042;-59
2023/09/02 02:58:23;;;;;;;1.25;1.15;;;;;;;;;;5022468;28;20405;-58
2023/09/02 03:00:49;;;;;;;1.00;0.95;;;;;;;;;;5024013;28;20045;-58
2023/09/02 03:03:16;;;;;;;1.23;1.13;;;;;;;;;;5021524;28;20084;-58
2023/09/02 03:05:42;;;;;;;0.90;0.90;;;;;;;;;;5021187;28;20044;-58
2023/09/02 03:08:09;;;;;;;1.05;1.05;;;;;;;;;;5023129;28;20049;-59
2023/09/02 03:10:35;;;;;;;0.88;0.88;;;;;;;;;;5019979;28;20040;-58
2023/09/02 03:13:02;;;;;;;1.15;1.05;;;;;;;;;;5022527;28;20042;-58
2023/09/02 03:15:28;;;;;;;1.00;1.00;;;;;;;;;;5023437;28;20496;-58
2023/09/02 03:17:54;;;;;;;1.02;1.02;;;;;;;;;;5019311;28;20036;-59
2023/09/02 03:20:20;;;;;;;0.93;0.93;;;;;;;;;;5022083;28;20041;-58
2023/09/02 03:22:46;;;;;;;1.05;1.00;;;;;;;;;;5022529;28;20037;-58
2023/09/02 03:25:13;;;;;;;0.98;0.88;;;;;;;;;;5022056;28;20046;-58
2023/09/02 03:27:42;;;;;;;1.17;1.08;;;;;;;;;;5023264;28;20548;-58
2023/09/02 03:30:09;;;;;;;1.05;1.02;;;;;;;;;;5022881;28;20045;-58
2023/09/02 03:32:35;;;;;;;1.00;1.00;;;;;;;;;;5023123;28;20037;-58
2023/09/02 03:35:04;;;;;;;1.25;1.15;;;;;;;;;;5021805;28;20072;-58
2023/09/02 03:37:30;;;;;;;1.00;0.90;;;;;;;;;;5021825;28;20054;-57
2023/09/02 03:39:57;;;;;;;0.82;0.82;;;;;;;;;;5020532;28;20037;-58
2023/09/02 03:42:23;;;;;;;1.08;0.98;;;;;;;;;;5021512;28;20127;-58
2023/09/02 03:44:49;;;;;;;1.00;0.90;;;;;;;;;;5022014;28;20164;-58
2023/09/02 03:47:15;;;;;;;0.80;0.80;;;;;;;;;;5021982;28;20073;-58
2023/09/02 03:49:41;;;;;;;0.90;0.90;;;;;;;;;;5026652;28;20429;-57
2023/09/02 03:52:07;;;;;;;0.90;0.80;;;;;;;;;;5025957;28;20037;-58
2023/09/02 03:54:34;;;;;;;1.00;0.98;;;;;;;;;;5027643;28;20448;-57
2023/09/02 03:57:02;;;;;;;0.77;0.77;;;;;;;;;;5027507;28;20073;-58
2023/09/02 03:59:28;;;;;;;0.98;0.98;;;;;;;;;;5025950;28;20048;-58
2023/09/02 04:01:54;;;;;;;1.10;1.00;;;;;;;;;;5024916;28;20037;-58
2023/09/02 04:04:20;;;;;;;0.98;0.98;;;;;;;;;;5024371;28;20128;-58
2023/09/02 04:06:46;;;;;;;1.08;0.80;;;;;;;;;;5024254;28;20046;-58
2023/09/02 04:09:12;;;;;;;0.80;0.80;;;;;;;;;;5025854;28;20286;-57
2023/09/02 04:11:38;;;;;;;1.30;1.20;;;;;;;;;;5026543;28;20081;-58
2023/09/02 04:14:04;;;;;;;1.20;1.10;;;;;;;;;;5025375;28;20041;-58
2023/09/02 04:16:30;;;;;;;1.10;1.00;;;;;;;;;;5025954;28;20072;-58
2023/09/02 04:19:02;;;;;;;0.93;0.90;;;;;;;;;;5026821;28;20042;-58
2023/09/02 04:21:28;;;;;;;1.30;1.20;;;;;;;;;;5026096;28;20045;-58
2023/09/02 04:23:54;;;;;;;1.20;1.10;;;;;;;;;;5025629;28;20045;-58
2023/09/02 04:26:21;;;;;;;1.10;1.00;;;;;;;;;;5025937;28;20041;-58
2023/09/02 04:28:47;;;;;;;1.00;1.00;;;;;;;;;;5025522;28;20135;-58
2023/09/02 04:31:13;;;;;;;1.25;1.15;;;;;;;;;;5026124;28;20046;-58
2023/09/02 04:33:39;;;;;;;1.17;1.08;;;;;;;;;;5023934;28;20063;-58
2023/09/02 04:36:06;;;;;;;0.77;0.75;;;;;;;;;;5024630;28;20571;-57
2023/09/02 04:38:32;;;;;;;0.85;0.85;;;;;;;;;;5024675;28;20394;-58
2023/09/02 04:41:03;;;;;;;0.93;0.93;;;;;;;;;;5023644;28;20382;-58
2023/09/02 04:43:29;;;;;;;0.90;0.90;;;;;;;;;;5025453;28;20099;-60
2023/09/02 04:45:55;;;;;;;0.80;0.80;;;;;;;;;;5026406;28;20166;-58
2023/09/02 04:48:22;;;;;;;0.80;0.80;;;;;;;;;;5024109;28;20081;-58
2023/09/02 04:50:55;;;;;;;0.80;0.80;;;;;;;;;;5026731;28;20041;-58
2023/09/02 04:53:22;;;;;;;0.63;0.63;;;;;;;;;;5025161;28;20037;-59
2023/09/02 04:55:48;;;;;;;0.88;0.80;;;;;;;;;;5025892;28;20037;-58
2023/09/02 04:58:15;;;;;;;0.70;0.70;;;;;;;;;;5024458;28;20041;-60
2023/09/02 05:00:41;;;;;;;0.80;0.80;;;;;;;;;;5025341;28;20029;-58
2023/09/02 05:03:08;;;;;;;0.60;0.60;;;;;;;;;;5025031;28;20038;-57
2023/09/02 05:05:34;;;;;;;0.80;0.80;;;;;;;;;;5025971;28;20176;-58
2023/09/02 05:08:01;;;;;;;1.10;1.00;;;;;;;;;;5025993;28;20079;-58
2023/09/02 05:10:27;;;;;;;1.30;1.20;;;;;;;;;;5024951;28;20038;-58
2023/09/02 05:12:53;;;;;;;2.85;1.50;;;;;;;;;;5026112;28;20401;-58
2023/09/02 05:15:19;;;;;;;0.90;0.90;;;;;;;;;;5024318;28;20131;-58
2023/09/02 05:17:45;;;;;;;1.25;1.15;;;;;;;;;;5025587;28;20045;-58
2023/09/02 05:20:12;;;;;;;1.30;1.20;;;;;;;;;;5025686;28;20045;-58
2023/09/02 05:22:38;;;;;;;1.52;1.40;;;;;;;;;;5026112;28;20045;-58
2023/09/02 05:25:04;;;;;;;1.00;1.00;;;;;;;;;;5024436;28;20056;-58
2023/09/02 05:27:31;;;;;;;1.70;1.10;;;;;;;;;;5025670;28;20033;-58
2023/09/02 05:29:57;;;;;;;1.33;1.23;;;;;;;;;;5025490;28;20033;-57
2023/09/02 05:32:23;;;;;;;1.30;1.15;;;;;;;;;;5025132;28;20508;-58
2023/09/02 05:34:49;;;;;;;1.50;1.40;;;;;;;;;;5024225;28;20564;-58
2023/09/02 05:37:15;;;;;;;1.00;1.00;;;;;;;;;;5023559;28;20124;-59
2023/09/02 05:39:41;;;;;;;1.23;1.13;;;;;;;;;;5025727;28;20056;-58
2023/09/02 05:42:07;;;;;;;1.38;1.27;;;;;;;;;;5023596;28;20041;-58
2023/09/02 05:44:36;;;;;;;1.55;1.30;;;;;;;;;;5024580;28;20408;-58
2023/09/02 05:47:03;;;;;;;1.42;1.33;;;;;;;;;;5024797;28;20052;-58
2023/09/02 05:49:29;;;;;;;1.05;1.02;;;;;;;;;;5025096;28;20140;-57
2023/09/02 05:51:55;;;;;;;0.98;0.90;;;;;;;;;;5024699;28;20148;-58
2023/09/02 05:54:21;;;;;;;1.00;1.00;;;;;;;;;;5023736;28;20215;-58
2023/09/02 05:56:47;;;;;;;0.95;0.95;;;;;;;;;;5024855;28;20127;-58
2023/09/02 05:59:13;;;;;;;1.02;0.93;;;;;;;;;;5023719;28;20148;-58
2023/09/02 06:01:39;;;;;;;0.98;0.80;;;;;;;;;;5023493;28;20033;-58
2023/09/02 06:04:05;;;;;;;1.30;1.20;;;;;;;;;;5024253;28;20079;-58
2023/09/02 06:06:31;;;;;;;0.82;0.82;;;;;;;;;;5023092;28;20059;-58
2023/09/02 06:08:57;;;;;;;0.88;0.88;;;;;;;;;;5024208;28;20044;-58
2023/09/02 06:11:23;;;;;;;0.40;0.40;;;;;;;;;;5024129;28;20416;-58
2023/09/02 06:13:50;;;;;;;0.73;0.73;;;;;;;;;;5023227;28;20041;-59
2023/09/02 06:16:16;;;;;;;0.38;0.38;;;;;;;;;;5019898;28;20107;-58
2023/09/02 06:18:42;;;;;;;0.60;0.60;;;;;;;;;;5025055;28;20045;-58
2023/09/02 06:21:12;;;;;;;0.40;0.40;;;;;;;;;;5023780;28;20402;-58
2023/09/02 06:23:38;;;;;;;0.43;0.40;;;;;;;;;;5026610;28;20116;-58
2023/09/02 06:26:04;;;;;;;0.70;0.70;;;;;;;;;;5023640;28;20061;-58
2023/09/02 06:28:30;;;;;;;0.28;0.28;;;;;;;;;;5024475;28;20040;-58
2023/09/02 06:30:56;;;;;;;0.32;0.32;;;;;;;;;;5024861;28;20037;-58
2023/09/02 06:33:23;;;;;;;0.40;0.40;;;;;;;;;;5022015;28;20096;-58
2023/09/02 06:35:50;;;;;;;0.45;0.30;;;;;;;;;;5023550;28;20049;-58
2023/09/02 06:38:16;;;;;;;0.30;0.30;;;;;;;;;;5023907;28;20180;-58
2023/09/02 06:40:43;;;;;;;0.38;0.38;;;;;;;;;;5024142;28;20045;-58
2023/09/02 06:43:09;;;;;;;0.28;0.28;;;;;;;;;;5024339;28;20566;-58
2023/09/02 06:45:35;;;;;;;0.28;0.20;;;;;;;;;;5023380;28;20037;-58
2023/09/02 06:48:01;;;;;;;0.47;0.32;;;;;;;;;;5022674;28;20115;-58
2023/09/02 06:50:30;;;;;;;0.30;0.30;;;;;;;;;;5023654;28;20041;-57
2023/09/02 06:52:56;;;;;;;0.22;0.22;;;;;;;;;;5023045;28;20034;-58
2023/09/02 06:55:22;;;;;;;0.30;0.30;;;;;;;;;;5022668;28;20574;-58
2023/09/02 06:57:48;;;;;;;0.20;0.20;;;;;;;;;;5023989;28;20105;-58
2023/09/02 07:00:14;;;;;;;0.13;0.13;;;;;;;;;;5022427;28;20686;-58
2023/09/02 07:02:42;;;;;;;0.20;0.20;;;;;;;;;;5022682;28;20041;-59
2023/09/02 07:05:08;;;;;;;0.20;0.20;;;;;;;;;;5023882;28;20460;-58
2023/09/02 07:07:36;;;;;;;0.50;0.50;;;;;;;;;;5024058;28;20045;-58
2023/09/02 07:10:03;;;;;;;0.50;0.50;;;;;;;;;;5021011;28;20837;-58
2023/09/02 07:12:29;;;;;;;0.30;0.30;;;;;;;;;;5023357;28;20104;-58
2023/09/02 07:14:55;;;;;;;0.55;0.50;;;;;;;;;;5022599;28;20148;-58
2023/09/02 07:17:21;;;;;;;0.75;0.75;;;;;;;;;;5019585;28;20126;-58
2023/09/02 07:19:47;;;;;;;0.60;0.60;;;;;;;;;;5024137;28;20049;-58
2023/09/02 07:22:13;;;;;;;0.40;0.40;;;;;;;;;;5023752;28;20041;-58
2023/09/02 07:24:39;;;;;;;0.68;0.68;;;;;;;;;;5026518;28;20038;-58
2023/09/02 07:27:05;;;;;;;0.80;0.80;;;;;;;;;;5027465;28;20778;-58
2023/09/02 07:29:31;;;;;;;0.70;0.70;;;;;;;;;;5027948;28;20033;-58
2023/09/02 07:31:57;;;;;;;0.60;0.60;;;;;;;;;;5027524;28;20045;-59
2023/09/02 07:34:23;;;;;;;0.80;0.77;;;;;;;;;;5024831;28;20425;-58
2023/09/02 07:36:49;;;;;;;1.67;1.15;;;;;;;;;;5025719;28;20481;-58
2023/09/02 07:39:16;;;;;;;1.45;1.08;;;;;;;;;;5026842;28;20865;-58
2023/09/02 07:41:42;;;;;;;1.40;1.30;;;;;;;;;;5026890;28;20038;-58
2023/09/02 07:44:11;;;;;;;1.80;1.70;;;;;;;;;;5026952;28;20389;-58
2023/09/02 07:46:37;;;;;;;2.20;2.00;;;;;;;;;;5027714;28;20061;-58
2023/09/02 07:49:03;;;;;;;2.20;1.75;;;;;;;;;;5027853;28;20471;-59
2023/09/02 07:51:30;;;;;;;3.08;2.33;;;;;;;;;;5026891;28;20432;-58
2023/09/02 07:53:56;;;;;;;2.17;1.98;;;;;;;;;;5027800;28;20056;-58
2023/09/02 07:56:22;;;;;;;2.13;1.70;;;;;;;;;;5026905;28;20045;-59
2023/09/02 07:58:50;;;;;;;1.40;1.30;;;;;;;;;;5027042;28;20047;-58
2023/09/02 08:01:16;;;;;;;1.80;1.70;;;;;;;;;;5027655;28;20057;-58
2023/09/02 08:03:42;;;;;;;2.00;1.80;;;;;;;;;;5023756;28;20148;-57
2023/09/02 08:06:08;;;;;;;1.55;1.45;;;;;;;;;;5020599;28;21145;-58
2023/09/02 08:08:35;;;;;;;1.60;1.50;;;;;;;;;;5027542;28;20381;-58
2023/09/02 08:11:04;;;;;;;1.70;1.60;;;;;;;;;;5027445;28;20132;-58
2023/09/02 08:13:31;;;;;;;1.35;1.25;;;;;;;;;;5026461;28;20049;-58
2023/09/02 08:15:57;;;;;;;1.27;1.15;;;;;;;;;;5027737;28;20037;-58
2023/09/02 08:18:23;;;;;;;0.73;0.70;;;;;;;;;;5027208;28;20052;-58
2023/09/02 08:20:49;;;;;;;1.00;0.90;;;;;;;;;;5027652;28;20102;-58
2023/09/02 08:23:15;;;;;;;1.02;1.00;;;;;;;;;;5026084;28;20041;-59
2023/09/02 08:25:41;;;;;;;1.17;1.08;;;;;;;;;;5027995;28;20041;-58
2023/09/02 08:28:07;;;;;;;1.00;1.00;;;;;;;;;;5025631;28;20417;-59
2023/09/02 08:30:33;;;;;;;1.08;0.75;;;;;;;;;;5027394;28;20083;-59
2023/09/02 08:32:59;;;;;;;1.40;1.10;;;;;;;;;;5025959;28;20561;-58
2023/09/02 08:35:25;;;;;;;1.58;1.48;;;;;;;;;;5016343;28;20038;-59
2023/09/02 08:37:51;;;;;;;1.60;1.48;;;;;;;;;;5023881;28;20051;-59
2023/09/02 08:40:17;;;;;;;1.60;1.50;;;;;;;;;;5025371;28;20091;-59
2023/09/02 08:42:44;;;;;;;1.20;1.10;;;;;;;;;;5027503;28;20068;-59
2023/09/02 08:45:11;;;;;;;1.52;1.13;;;;;;;;;;5025788;28;20045;-59
2023/09/02 08:47:41;;;;;;;1.33;1.00;;;;;;;;;;5023901;28;20099;-58
2023/09/02 08:50:10;;;;;;;1.75;1.08;;;;;;;;;;5020048;28;20050;-58
2023/09/02 08:52:37;;;;;;;2.00;1.25;;;;;;;;;;5022583;28;20065;-60
2023/09/02 08:55:03;;;;;;;1.10;1.10;;;;;;;;;;5025768;28;20045;-59
2023/09/02 08:57:29;;;;;;;1.92;1.15;;;;;;;;;;5025654;28;20072;-58
2023/09/02 08:59:55;;;;;;;1.63;1.52;;;;;;;;;;5025168;28;20127;-58
2023/09/02 09:02:22;;;;;;;1.30;1.20;;;;;;;;;;5022464;28;20043;-60
2023/09/02 09:04:48;;;;;;;1.73;1.10;;;;;;;;;;5027407;28;20041;-58
2023/09/02 09:07:17;;;;;;;1.75;0.95;;;;;;;;;;5027267;28;20037;-58
2023/09/02 09:09:43;;;;;;;0.77;0.70;;;;;;;;;;5026078;28;20037;-59
2023/09/02 09:12:13;;;;;;;0.70;0.60;;;;;;;;;;5026575;28;20055;-58
2023/09/02 09:14:40;;;;;;;1.33;1.10;;;;;;;;;;5017916;28;20068;-59
2023/09/02 09:17:07;;;;;;;1.30;1.17;;;;;;;;;;5016322;28;20053;-59
2023/09/02 09:19:33;;;;;;;1.52;0.93;;;;;;;;;;5014954;28;20069;-59
2023/09/02 09:22:02;;;;;;;0.90;0.90;;;;;;;;;;5014577;28;20036;-59
2023/09/02 09:24:29;;;;;;;0.80;0.77;;;;;;;;;;5026007;28;20485;-59
2023/09/02 09:26:55;;;;;;;1.00;0.93;;;;;;;;;;5027114;28;20044;-59
2023/09/02 09:29:21;;;;;;;3.28;1.25;;;;;;;;;;5026376;28;20041;-58
2023/09/02 09:31:48;;;;;;;2.55;1.60;;;;;;;;;;5026804;28;20052;-60
2023/09/02 09:34:14;;;;;;;1.23;1.13;;;;;;;;;;5027406;28;20493;-58
2023/09/02 09:36:41;;;;;;;1.30;1.20;;;;;;;;;;5027000;28;20046;-58
2023/09/02 09:39:08;;;;;;;1.92;1.25;;;;;;;;;;5027070;28;20052;-59
2023/09/02 09:41:35;;;;;;;0.80;0.80;;;;;;;;;;5027140;28;20068;-59
2023/09/02 09:44:04;;;;;;;1.23;0.70;;;;;;;;;;5026251;28;20041;-59
2023/09/02 09:46:32;;;;;;;0.80;0.70;;;;;;;;;;5026049;28;20545;-59
2023/09/02 09:49:01;;;;;;;1.27;1.08;;;;;;;;;;5019335;28;20171;-59
2023/09/02 09:51:27;;;;;;;2.40;1.40;;;;;;;;;;5018795;28;20088;-58
2023/09/02 09:53:53;;;;;;;2.38;1.20;;;;;;;;;;5024891;28;20045;-59
2023/09/02 09:56:20;;;;;;;0.93;0.85;;;;;;;;;;5025283;28;20091;-59
2023/09/02 09:58:46;;;;;;;0.77;0.77;;;;;;;;;;5019139;28;20690;-58
2023/09/02 10:01:20;;;;;;;0.60;0.60;;;;;;;;;;5024994;28;20110;-58
2023/09/02 10:03:46;;;;;;;0.73;0.73;;;;;;;;;;5024570;28;20501;-58
2023/09/02 10:06:12;;;;;;;1.05;0.95;;;;;;;;;;5016332;28;20414;-59
2023/09/02 10:08:56;;;;;;;1.75;1.40;;;;;;;;;;5020730;28;20041;-58
2023/09/02 10:11:23;;;;;;;0.77;0.77;;;;;;;;;;5016908;28;20057;-58
2023/09/02 10:13:52;;;;;;;1.10;0.95;;;;;;;;;;5022697;28;20055;-58
2023/09/02 10:16:19;;;;;;;1.88;1.30;;;;;;;;;;5022990;28;20091;-58
2023/09/02 10:18:48;;;;;;;1.25;1.15;;;;;;;;;;5023019;28;20397;-58
2023/09/02 10:21:15;;;;;;;1.45;1.35;;;;;;;;;;5020751;28;20049;-58
2023/09/02 10:23:49;;;;;;;1.75;1.65;;;;;;;;;;5014391;28;20041;-58
2023/09/02 10:26:24;;;;;;;1.38;1.27;;;;;;;;;;5012924;28;20124;-58
2023/09/02 10:28:51;;;;;;;0.75;0.75;;;;;;;;;;5017465;28;20045;-58
2023/09/02 10:31:23;;;;;;;1.23;0.60;;;;;;;;;;5013536;28;20054;-58
2023/09/02 10:34:02;;;;;;;1.80;0.60;;;;;;;;;;5015194;28;20040;-59
2023/09/02 10:36:29;;;;;;;0.77;0.60;;;;;;;;;;5015849;28;20471;-59
2023/09/02 10:38:56;;;;;;;1.10;0.82;;;;;;;;;;5015775;28;20042;-58
2023/09/02 10:41:24;;;;;;;0.95;0.90;;;;;;;;;;5020439;28;20519;-59
2023/09/02 10:43:50;;;;;;;0.90;0.90;;;;;;;;;;5020301;28;20116;-58
2023/09/02 10:46:17;;;;;;;1.02;0.93;;;;;;;;;;5016751;28;20049;-59
2023/09/02 10:48:45;;;;;;;1.10;0.90;;;;;;;;;;5015556;28;20057;-57
2023/09/02 10:51:12;;;;;;;0.52;0.47;;;;;;;;;;5018899;28;20068;-58
2023/09/02 10:53:50;;;;;;;0.50;0.50;;;;;;;;;;5017681;28;20124;-57
2023/09/02 10:56:27;;;;;;;0.55;0.55;;;;;;;;;;5010520;28;20128;-59
2023/09/02 10:58:53;;;;;;;1.10;1.00;;;;;;;;;;5018448;28;20050;-57
2023/09/02 11:01:20;;;;;;;2.03;1.63;;;;;;;;;;5021761;28;20048;-56
2023/09/02 11:03:49;;;;;;;1.63;1.52;;;;;;;;;;5023634;28;20560;-59
2023/09/02 11:06:17;;;;;;;1.70;1.60;;;;;;;;;;5016998;28;20081;-56
2023/09/02 11:08:46;;;;;;;1.98;1.27;;;;;;;;;;5022784;28;20091;-57
2023/09/02 11:11:12;;;;;;;1.50;1.25;;;;;;;;;;5021472;28;20056;-59
2023/09/02 11:13:57;;;;;;;2.60;1.77;;;;;;;;;;5026522;28;20044;-57
2023/09/02 11:16:23;;;;;;;2.22;1.30;;;;;;;;;;5026818;28;20050;-60
2023/09/02 11:18:49;;;;;;;1.23;1.13;;;;;;;;;;5021640;28;20048;-60
2023/09/02 11:21:34;;;;;;;0.80;0.80;;;;;;;;;;5028127;28;20099;-60
2023/09/02 11:24:18;;;;;;;0.75;0.60;;;;;;;;;;5023366;28;20671;-60
2023/09/02 11:26:54;;;;;;;0.63;0.40;;;;;;;;;;5024990;28;20041;-59
2023/09/02 11:29:23;;;;;;;1.52;1.42;;;;;;;;;;5024831;28;20052;-60
2023/09/02 11:31:59;;;;;;;1.20;1.10;;;;;;;;;;5022212;28;20112;-60
2023/09/02 11:34:28;;;;;;;1.30;1.20;;;;;;;;;;5023827;28;20033;-59
2023/09/02 11:36:54;;;;;;;1.00;0.95;;;;;;;;;;5023465;28;20045;-59
2023/09/02 11:39:27;;;;;;;1.25;1.13;;;;;;;;;;5022415;28;20042;-59
2023/09/02 11:42:13;;;;;;;1.65;0.65;;;;;;;;;;5023940;28;20049;-59
2023/09/02 11:44:39;;;;;;;0.45;0.45;;;;;;;;;;5023980;28;20095;-60
2023/09/02 11:47:06;;;;;;;0.65;0.65;;;;;;;;;;5023005;28;20069;-57
2023/09/02 11:49:32;;;;;;;0.65;0.45;;;;;;;;;;5024562;28;20582;-64
2023/09/02 11:51:58;;;;;;;0.40;0.40;;;;;;;;;;5023158;28;20045;-58
2023/09/02 11:54:25;;;;;;;0.57;0.57;;;;;;;;;;5016186;28;20065;-57
2023/09/02 11:57:00;;;;;;;0.40;0.40;;;;;;;;;;5014211;28;20041;-57
2023/09/02 11:59:26;;;;;;;0.80;0.68;;;;;;;;;;5019712;28;20849;-58
2023/09/02 12:02:08;;;;;;;0.68;0.60;;;;;;;;;;5026217;28;20044;-56
2023/09/02 12:04:37;;;;;;;1.20;0.93;;;;;;;;;;5026545;28;20168;-58
2023/09/02 12:07:04;;;;;;;1.10;0.98;;;;;;;;;;5026563;28;20536;-57
2023/09/02 12:09:31;;;;;;;0.65;0.63;;;;;;;;;;5026185;28;20041;-58
2023/09/02 12:11:57;;;;;;;1.17;0.80;;;;;;;;;;5025772;28;20510;-59
2023/09/02 12:14:24;;;;;;;1.23;0.75;;;;;;;;;;5018998;28;20508;-57
2023/09/02 12:16:50;;;;;;;0.68;0.60;;;;;;;;;;5026354;28;20175;-57
2023/09/02 12:19:16;;;;;;;0.82;0.60;;;;;;;;;;5022727;28;20084;-57
2023/09/02 12:21:42;;;;;;;0.32;0.32;;;;;;;;;;5026866;28;20079;-60
2023/09/02 12:24:09;;;;;;;0.80;0.60;;;;;;;;;;5026344;28;20087;-60
2023/09/02 12:26:46;;;;;;;0.55;0.45;;;;;;;;;;5025811;28;20034;-59
2023/09/02 12:29:19;;;;;;;0.77;0.55;;;;;;;;;;5026358;28;20128;-60
2023/09/02 12:32:01;;;;;;;0.80;0.70;;;;;;;;;;5024613;28;20045;-59
2023/09/02 12:34:36;;;;;;;;;;;;;;;;;;5016877;28;20045;-60
2023/09/02 12:37:18;;;;;;;1.10;0.68;;;;;;;;;;5019741;28;19952;-61
2023/09/02 12:39:44;;;;;;;0.47;0.47;;;;;;;;;;5024221;28;20048;-60
2023/09/02 12:42:16;;;;;;;0.60;0.50;;;;;;;;;;5022668;28;20033;-59
2023/09/02 12:44:48;;;;;;;0.68;0.68;;;;;;;;;;5023420;28;20069;-59
2023/09/02 12:47:18;;;;;;;0.77;0.60;;;;;;;;;;5021303;28;20176;-59
2023/09/02 12:49:44;;;;;;;0.75;0.60;;;;;;;;;;5023419;28;20042;-60
2023/09/02 12:52:17;;;;;;;1.90;1.10;;;;;;;;;;5024420;28;20038;-59
2023/09/02 12:54:52;;;;;;;1.42;1.08;;;;;;;;;;5020721;28;20065;-60
2023/09/02 12:57:18;;;;;;;0.80;0.60;;;;;;;;;;5022726;28;20052;-59
2023/09/02 12:59:44;;;;;;;0.50;0.47;;;;;;;;;;5020074;28;20064;-59
2023/09/02 13:02:10;;;;;;;0.60;0.60;;;;;;;;;;5022849;28;20505;-59
2023/09/02 13:04:36;;;;;;;0.43;0.40;;;;;;;;;;5019291;28;20037;-59
2023/09/02 13:07:03;;;;;;;0.60;0.60;;;;;;;;;;5021366;28;20046;-58
2023/09/02 13:09:30;;;;;;;0.45;0.40;;;;;;;;;;5023600;28;20087;-58
2023/09/02 13:11:56;;;;;;;0.40;0.40;;;;;;;;;;5024022;28;20041;-59
2023/09/02 13:14:22;;;;;;;0.40;0.40;;;;;;;;;;5022932;28;20325;-59
2023/09/02 13:16:49;;;;;;;1.95;0.63;;;;;;;;;;5025887;28;20045;-59
2023/09/02 13:19:15;;;;;;;0.43;0.43;;;;;;;;;;5025034;28;20077;-59
2023/09/02 13:21:41;;;;;;;1.73;0.82;;;;;;;;;;5023514;28;20075;-60
2023/09/02 13:24:07;;;;;;;0.70;0.40;;;;;;;;;;5024324;28;20371;-58
2023/09/02 13:26:33;;;;;;;0.60;0.50;;;;;;;;;;5021717;28;20102;-60
2023/09/02 13:29:02;;;;;;;0.73;0.50;;;;;;;;;;5024151;28;20041;-59
2023/09/02 13:31:28;;;;;;;0.93;0.70;;;;;;;;;;5023708;28;20084;-59
2023/09/02 13:33:54;;;;;;;0.50;0.50;;;;;;;;;;5021325;28;20033;-60
2023/09/02 13:36:20;;;;;;;1.65;0.38;;;;;;;;;;5022782;28;20100;-59
2023/09/02 13:38:46;;;;;;;0.80;0.40;;;;;;;;;;5024694;28;20045;-60
2023/09/02 13:41:12;;;;;;;0.50;0.40;;;;;;;;;;5022901;28;20285;-60
2023/09/02 13:43:38;;;;;;;0.30;0.30;;;;;;;;;;5019396;28;20531;-59
2023/09/02 13:46:09;;;;;;;0.22;0.22;;;;;;;;;;5022877;28;20037;-59
2023/09/02 13:48:35;;;;;;;0.20;0.20;;;;;;;;;;5023137;28;20111;-59
2023/09/02 13:51:05;;;;;;;0.40;0.30;;;;;;;;;;5021807;28;20049;-59
2023/09/02 13:53:36;;;;;;;0.55;0.30;;;;;;;;;;5019370;28;20123;-60
2023/09/02 13:56:02;;;;;;;0.45;0.40;;;;;;;;;;5021131;28;20033;-59
2023/09/02 13:58:33;;;;;;;0.30;0.30;;;;;;;;;;5019858;28;20763;-59
2023/09/02 14:00:59;;;;;;;1.23;0.40;;;;;;;;;;5018987;28;20135;-60
2023/09/02 14:03:26;;;;;;;0.30;0.22;;;;;;;;;;5019651;28;20068;-60
2023/09/02 14:05:53;;;;;;;0.70;0.60;;;;;;;;;;5024281;28;20041;-60
2023/09/02 14:08:20;;;;;;;0.47;0.30;;;;;;;;;;5022630;28;20076;-60
2023/09/02 14:10:49;;;;;;;0.25;0.20;;;;;;;;;;5022513;28;20856;-59
2023/09/02 14:13:16;;;;;;;0.32;0.20;;;;;;;;;;5024999;28;20099;-59
2023/09/02 14:15:42;;;;;;;0.60;0.38;;;;;;;;;;5019387;28;20041;-59
2023/09/02 14:18:08;;;;;;;0.73;0.28;;;;;;;;;;5013139;28;21175;-59
2023/09/02 14:20:34;;;;;;;0.20;0.20;;;;;;;;;;5020463;28;20045;-58
2023/09/02 14:23:00;;;;;;;0.20;0.20;;;;;;;;;;5020492;28;20080;-59
2023/09/02 14:25:26;;;;;;;0.30;0.30;;;;;;;;;;5021302;28;20045;-60
2023/09/02 14:27:53;;;;;;;0.20;0.20;;;;;;;;;;5024182;28;20037;-59
2023/09/02 14:30:19;;;;;;;0.43;0.32;;;;;;;;;;5023226;28;20076;-59
2023/09/02 14:32:45;;;;;;;0.20;0.20;;;;;;;;;;5022069;28;20042;-59
2023/09/02 14:35:11;;;;;;;0.47;0.20;;;;;;;;;;5023017;28;20536;-59
2023/09/02 14:37:37;;;;;;;0.52;0.32;;;;;;;;;;5021703;28;20120;-58
2023/09/02 14:40:04;;;;;;;0.35;0.35;;;;;;;;;;5023063;28;20035;-59
2023/09/02 14:42:32;;;;;;;0.20;0.20;;;;;;;;;;5019310;28;20069;-59
2023/09/02 14:44:58;;;;;;;0.30;0.30;;;;;;;;;;5022286;28;20037;-59